• Join FlightAware (Why Join?)
  • Login
  • US Flag 
10:49AM EDT


 

Airport Tracker/Info


-or-


 

Live Flight TrackerFlight Track Log ✈ SWA525 ✈ 25-Apr-2013 ✈ KDAL - KMSY

Flight Track Log - Related Links

Times and Time Zones

All times are in EDT time to prevent confusion due to time zone crossing. See the SWA525 flight status page for this flight to view local times or setup timezone preferences in your user account.

Time Position Orientation Groundspeed Altitude Reporting Facility
EDT Latitude Longitude Course Direction KTS MPH feet Rate Location/Type
04:35PM 32.8167 -96.8333 102° East 171 197 2,000  Level Dallas / Fort Worth TRACON
04:36PM 32.7667 -96.7833 140° Southeast 225 259 4,900 2,580 Climbing Dallas / Fort Worth TRACON
04:37PM 32.7500 -96.7000 103° East 267 307 7,200 2,400 Climbing Dallas / Fort Worth TRACON
04:38PM 32.7500 -96.6167 90° East 306 352 9,800 2,280 Climbing Dallas / Fort Worth TRACON
04:39PM 32.7550 -96.4994 87° East 322 371 12,100 2,220 Climbing Fort Worth Center
04:40PM 32.7603 -96.3683 87° East 351 404 14,600 2,280 Climbing Fort Worth Center
04:41PM 32.7718 -96.4364 102° East  Level FlightAware Approximate
04:41PM 32.7486 -96.2550 97° East 373 429 16,700  Level Fort Worth Center
04:42PM 32.7264 -96.1144 101° East 389 448 18,000 840 Climbing Fort Worth Center
04:43PM 32.7064 -95.9914 101° East 412 474 18,400 1,800 Climbing Fort Worth Center
04:44PM 32.6839 -95.8486 101° East 412 474 21,700 2,160 Climbing Fort Worth Center
04:45PM 32.6636 -95.7281 101° East 413 475 22,800 1,320 Climbing Fort Worth Center
04:46PM 32.6611 -95.5675 91° East 435 501 24,400 1,560 Climbing Fort Worth Center
04:47PM 32.6714 -95.4194 85° East 445 512 26,000 1,200 Climbing Fort Worth Center
04:48PM 32.6839 -95.2833 84° East 454 522 26,900 960 Climbing Fort Worth Center
04:49PM 32.6894 -95.1253 88° East 461 531 28,000 1,200 Climbing Fort Worth Center
04:50PM 32.6989 -94.9619 86° East 479 551 29,300 1,260 Climbing Fort Worth Center
04:51PM 32.7039 -94.7989 88° East 486 559 30,600 1,260 Climbing Fort Worth Center
04:52PM 32.6611 -94.6472 108° East 481 554 31,900 1,140 Climbing Fort Worth Center
04:53PM 32.6075 -94.4886 112° Southeast 488 562 32,900 960 Climbing Fort Worth Center
04:54PM 32.5578 -94.3397 112° Southeast 495 570 33,900 1,020 Climbing Fort Worth Center
04:55PM 32.5061 -94.1914 112° Southeast 500 575 35,000 540 Climbing Fort Worth Center
04:56PM 32.4542 -94.0381 112° Southeast 500 575 35,000  Level Fort Worth Center
04:57PM 32.3997 -93.8828 113° Southeast 500 575 35,000  Level Fort Worth Center
04:58PM 32.3472 -93.7272 112° Southeast 500 575 35,000  Level Fort Worth Center
05:01PM 32.2888 -93.5612 113° Southeast  Level FlightAware Approximate
05:01PM 32.1844 -93.2647 113° Southeast 505 581 35,000  Level Houston Center
05:02PM 32.1311 -93.1128 112° Southeast 504 580 35,000  Level Houston Center
05:03PM 32.0761 -92.9603 113° Southeast 503 579 35,000  Level Houston Center
05:04PM 32.0203 -92.8064 113° Southeast 506 582 35,000  Level Houston Center
05:05PM 31.9347 -92.6392 121° Southeast 499 574 35,000  Level Houston Center
05:06PM 31.8300 -92.5425 142° Southeast 480 552 35,000  Level Houston Center
05:07PM 31.7261 -92.4442 141° Southeast 477 549 35,000  Level Houston Center
05:09PM 31.6228 -92.3475 141° Southeast 477 549 35,000  Level Houston Center
05:10PM 31.5203 -92.2494 141° Southeast 475 547 35,000  Level Houston Center
05:11PM 31.4161 -92.1522 141° Southeast 478 550 35,000  Level Houston Center
05:12PM 31.2864 -92.0317 142° Southeast 479 551 35,000  Level Houston Center
05:13PM 31.1817 -91.9342 141° Southeast 480 552 35,000 -780 Level Houston Center
05:14PM 31.0783 -91.8383 142° Southeast 476 548 33,500 -2,280 Descending Houston Center
05:15PM 30.9744 -91.7414 141° Southeast 476 548 30,400 -2,760 Descending Houston Center
05:16PM 30.8706 -91.6453 142° Southeast 477 549 27,800 -2,400 Descending Houston Center
05:17PM 30.7700 -91.5547 142° Southeast 464 534 25,500 -2,220 Descending Houston Center
05:18PM 30.6753 -91.4667 141° Southeast 448 516 23,300 -2,280 Descending Houston Center
05:19PM 30.5661 -91.3675 142° Southeast 425 489 20,800 -2,280 Descending Houston Center
05:20PM 30.4778 -91.2864 142° Southeast 410 472 18,700 -1,800 Descending Houston Center
05:21PM 30.3956 -91.2083 141° Southeast 389 448 17,200 -1,740 Descending Houston Center
05:22PM 30.3125 -91.1328 142° Southeast 382 440 15,100 -2,040 Descending Houston Center
05:23PM 30.2306 -91.0586 142° Southeast 377 434 13,000 -2,040 Descending Houston Center
05:24PM 30.1378 -90.9711 141° Southeast 365 420 11,000 -1,440 Descending Houston Center
05:25PM 30.1114 -90.8831 109° East 324 373 10,100 -720 Descending Houston Center
05:26PM 30.1308 -90.7964 75° East 288 331 9,600 -720 Descending Houston Center
05:27PM 30.1092 -90.7211 108° East 249 287 8,700 -900 Descending Houston Center
05:28PM 30.0892 -90.6511 108° East 239 275 7,800 -960 Descending Houston Center
05:29PM 30.0711 -90.5894 109° East 221 254 6,800 -1,320 Descending Houston Center
05:30PM 30.0578 -90.5303 105° East 181 208 5,100 -1,500 Descending Houston Center
05:31PM 30.0408 -90.4675 107° East 169 194 3,600 -1,320 Descending Houston Center
05:32PM 30.0314 -90.4244 104° East 150 173 2,400 -1,020 Descending Houston Center
05:33PM 30.0194 -90.3794 107° East 139 160 1,600 -720 Descending Houston Center
05:34PM 30.0100 -90.3389 105° East 143 165 1,000 -600 Descending Houston Center
05:35PM 30.0014 -90.2961 103° East 143 165 400 -600 Descending Houston Center
05:37PM 29.9934 -90.2580 101° East  Level Estimated
05:44PM 29.9934 -90.2580 101° East  Level Estimated
05:45PM 29.9934 -90.2580 101° East  Level Estimated
05:46PM 29.9934 -90.2580 101° East  Level Estimated